createdAt,value
2019-01-14T00:00:04.816Z,74.81
2019-01-14T00:01:04.807Z,74.29
2019-01-14T00:02:04.824Z,74.71
2019-01-14T00:03:04.780Z,74.08
2019-01-14T00:04:04.782Z,73.68
2019-01-14T00:05:04.759Z,72.54
2019-01-14T00:06:10.122Z,71.92
2019-01-14T00:07:06.058Z,72.85
2019-01-14T00:08:04.729Z,72.54
2019-01-14T00:09:04.713Z,71.61
2019-01-14T00:10:04.717Z,71.51
2019-01-14T00:11:04.696Z,70.99
2019-01-14T00:12:04.695Z,71.02
2019-01-14T00:13:04.685Z,70.57
2019-01-14T00:14:04.665Z,70.57
2019-01-14T00:15:04.656Z,70.61
2019-01-14T00:16:04.648Z,70.47
2019-01-14T00:17:04.628Z,70.72
2019-01-14T00:18:04.636Z,71.33
2019-01-14T00:19:04.608Z,71.23
2019-01-14T00:20:04.605Z,71.12
2019-01-14T00:21:04.608Z,70.92
2019-01-14T00:22:04.579Z,71.33
2019-01-14T00:23:04.577Z,72.06
2019-01-14T00:24:04.552Z,72.06
2019-01-14T00:25:04.613Z,72.06
2019-01-14T00:26:04.533Z,73.12
2019-01-14T00:27:04.652Z,73.22
2019-01-14T00:28:04.526Z,74.53
2019-01-14T00:29:04.502Z,74.67
2019-01-14T00:30:04.489Z,76.01
2019-01-14T00:31:04.482Z,76.43
2019-01-14T00:32:04.469Z,77.77
2019-01-14T00:33:04.473Z,76.98
2019-01-14T00:34:04.452Z,77.29
2019-01-14T00:35:04.435Z,77.01
2019-01-14T00:36:04.426Z,77.84
2019-01-14T00:37:04.416Z,78.15
2019-01-14T00:38:04.505Z,77.74
2019-01-14T00:39:04.392Z,78.05
2019-01-14T00:40:04.384Z,76.81
2019-01-14T00:41:04.372Z,77.12
2019-01-14T00:42:04.360Z,76.18
2019-01-14T00:43:04.352Z,75.57
2019-01-14T00:44:04.358Z,75.40
2019-01-14T00:45:04.456Z,74.88
2019-01-14T00:46:04.436Z,74.88
2019-01-14T00:47:04.352Z,74.63
2019-01-14T00:48:04.308Z,74.63
2019-01-14T00:49:04.342Z,74.36
2019-01-14T00:50:04.277Z,73.91
2019-01-14T00:51:04.270Z,73.84
2019-01-14T00:52:04.259Z,73.81
2019-01-14T00:53:04.261Z,73.39
2019-01-14T00:54:04.254Z,73.19
2019-01-14T00:55:04.227Z,72.88
2019-01-14T00:56:04.248Z,72.88
2019-01-14T00:57:04.201Z,72.67
2019-01-14T00:58:04.190Z,71.84
2019-01-14T00:59:04.222Z,71.74
2019-01-14T01:00:04.168Z,71.43
2019-01-14T01:01:04.159Z,71.12
2019-01-14T01:02:04.150Z,71.53
2019-01-14T01:03:04.137Z,71.12
2019-01-14T01:04:04.141Z,71.43
2019-01-14T01:05:04.123Z,71.43
2019-01-14T01:06:04.106Z,70.92
2019-01-14T01:07:04.132Z,70.61
2019-01-14T01:08:04.092Z,71.02
2019-01-14T01:09:04.092Z,71.12
2019-01-14T01:10:04.066Z,70.92
2019-01-14T01:11:04.057Z,71.12
2019-01-14T01:12:04.043Z,71.43
2019-01-14T01:13:04.038Z,70.88
2019-01-14T01:14:04.091Z,70.81
2019-01-14T01:15:04.015Z,70.92
2019-01-14T01:16:04.006Z,71.12
2019-01-14T01:17:04.042Z,71.40
2019-01-14T01:18:03.978Z,71.12
2019-01-14T01:19:03.972Z,71.74
2019-01-14T01:20:03.978Z,71.74
2019-01-14T01:21:03.953Z,72.05
2019-01-14T01:22:03.964Z,72.85
2019-01-14T01:23:03.931Z,72.26
2019-01-14T01:24:03.941Z,72.98
2019-01-14T01:25:03.979Z,73.29
2019-01-14T01:26:03.898Z,73.08
2019-01-14T01:27:03.892Z,72.98
2019-01-14T01:28:03.878Z,73.08
2019-01-14T01:29:03.873Z,72.88
2019-01-14T01:30:03.870Z,72.57
2019-01-14T01:31:03.845Z,73.43
2019-01-14T01:32:03.841Z,73.39
2019-01-14T01:33:03.829Z,73.19
2019-01-14T01:34:03.811Z,73.50
2019-01-14T01:35:03.837Z,73.50
2019-01-14T01:36:03.791Z,72.98
2019-01-14T01:37:03.779Z,72.50
2019-01-14T01:38:03.769Z,72.67
2019-01-14T01:39:03.762Z,72.67
2019-01-14T01:40:03.759Z,73.02
2019-01-14T01:41:03.742Z,73.39
2019-01-14T01:42:03.727Z,73.08
2019-01-14T01:43:03.717Z,72.98
2019-01-14T01:44:03.711Z,73.81
2019-01-14T01:45:03.715Z,73.29
2019-01-14T01:46:03.712Z,72.98
2019-01-14T01:47:03.680Z,73.39
2019-01-14T01:48:03.664Z,73.02
2019-01-14T01:49:03.671Z,73.29
2019-01-14T01:50:03.655Z,73.29
2019-01-14T01:51:03.631Z,73.33
2019-01-14T01:52:03.638Z,73.71
2019-01-14T01:53:03.620Z,73.91
2019-01-14T01:54:03.600Z,73.91
2019-01-14T01:55:03.600Z,73.84
2019-01-14T01:56:03.582Z,74.46
2019-01-14T01:57:03.575Z,74.98
2019-01-14T01:58:03.557Z,74.91
2019-01-14T01:59:03.547Z,75.09
2019-01-14T02:00:03.553Z,75.53
2019-01-14T02:01:03.531Z,75.40
2019-01-14T02:02:03.514Z,75.53
2019-01-14T02:03:03.507Z,74.98
2019-01-14T02:04:03.497Z,75.19
2019-01-14T02:05:03.495Z,74.88
2019-01-14T02:06:03.473Z,74.67
2019-01-14T02:07:03.464Z,74.26
2019-01-14T02:08:03.451Z,74.46
2019-01-14T02:09:03.444Z,74.36
2019-01-14T02:10:03.442Z,74.15
2019-01-14T02:11:03.428Z,74.36
2019-01-14T02:12:03.414Z,73.94
2019-01-14T02:13:03.403Z,73.02
2019-01-14T02:14:03.395Z,72.81
2019-01-14T02:15:03.389Z,73.54
2019-01-14T02:16:03.374Z,73.54
2019-01-14T02:17:03.363Z,73.02
2019-01-14T02:18:03.354Z,73.02
2019-01-14T02:19:03.343Z,73.33
2019-01-14T02:20:03.349Z,72.81
2019-01-14T02:21:03.312Z,72.91
2019-01-14T02:22:03.306Z,73.12
2019-01-14T02:23:03.301Z,73.02
2019-01-14T02:24:03.291Z,72.91
2019-01-14T02:25:03.288Z,72.43
2019-01-14T02:26:03.261Z,72.19
2019-01-14T02:27:03.252Z,72.08
2019-01-14T02:28:03.239Z,72.50
2019-01-14T02:29:03.233Z,72.81
2019-01-14T02:30:03.231Z,72.29
2019-01-14T02:31:03.209Z,72.64
2019-01-14T02:32:03.199Z,72.53
2019-01-14T02:33:03.196Z,72.43
2019-01-14T02:34:03.181Z,72.33
2019-01-14T02:35:03.186Z,72.02
2019-01-14T02:36:03.156Z,72.74
2019-01-14T02:37:03.149Z,72.02
2019-01-14T02:38:03.138Z,71.67
2019-01-14T02:39:03.122Z,71.67
2019-01-14T02:40:03.116Z,71.88
2019-01-14T02:41:03.117Z,71.19
2019-01-14T02:42:03.094Z,71.19
2019-01-14T02:43:03.090Z,71.29
2019-01-14T02:44:03.073Z,70.98
2019-01-14T02:45:03.062Z,71.60
2019-01-14T02:46:03.072Z,71.19
2019-01-14T02:47:03.041Z,71.39
2019-01-14T02:48:03.037Z,71.50
2019-01-14T02:49:03.018Z,70.87
2019-01-14T02:50:03.010Z,70.47
2019-01-14T02:51:03.013Z,70.74
2019-01-14T02:52:03.002Z,71.05
2019-01-14T02:53:02.981Z,71.05
2019-01-14T02:54:02.998Z,70.77
2019-01-14T02:55:02.958Z,70.84
2019-01-14T02:56:02.956Z,70.84
2019-01-14T02:57:02.937Z,70.87
2019-01-14T02:58:02.924Z,70.98
2019-01-14T02:59:02.917Z,70.26
2019-01-14T03:00:02.906Z,70.84
2019-01-14T03:01:02.907Z,70.64
2019-01-14T03:02:02.887Z,71.19
2019-01-14T03:03:02.875Z,70.98
2019-01-14T03:04:02.868Z,70.64
2019-01-14T03:05:02.852Z,70.74
2019-01-14T03:06:02.850Z,70.87
2019-01-14T03:07:02.834Z,70.57
2019-01-14T03:08:02.820Z,70.84
2019-01-14T03:09:02.809Z,70.87
2019-01-14T03:10:02.809Z,70.67
2019-01-14T03:11:02.804Z,69.32
2019-01-14T03:12:02.789Z,69.53
2019-01-14T03:13:02.767Z,69.53
2019-01-14T03:14:02.755Z,69.32
2019-01-14T03:15:02.769Z,69.43
2019-01-14T03:16:02.751Z,69.09
2019-01-14T03:17:02.728Z,69.40
2019-01-14T03:18:02.713Z,69.22
2019-01-14T03:19:02.702Z,69.22
2019-01-14T03:20:02.701Z,69.43
2019-01-14T03:21:02.696Z,69.53
2019-01-14T03:22:02.672Z,69.01
2019-01-14T03:23:02.667Z,70.26
2019-01-14T03:24:02.655Z,69.29
2019-01-14T03:25:02.642Z,70.36
2019-01-14T03:26:02.645Z,70.67
2019-01-14T03:27:02.625Z,70.67
2019-01-14T03:28:02.609Z,70.05
2019-01-14T03:29:02.605Z,70.15
2019-01-14T03:30:02.596Z,70.47
2019-01-14T03:31:02.595Z,70.57
2019-01-14T03:32:02.578Z,70.15
2019-01-14T03:33:02.562Z,69.22
2019-01-14T03:34:02.546Z,69.64
2019-01-14T03:35:02.541Z,69.22
2019-01-14T03:36:02.539Z,69.35
2019-01-14T03:37:05.550Z,69.56
2019-01-14T03:38:02.503Z,69.56
2019-01-14T03:39:02.493Z,69.25
2019-01-14T03:40:02.513Z,69.04
2019-01-14T03:41:02.557Z,69.43
2019-01-14T03:42:02.468Z,69.67
2019-01-14T03:43:02.454Z,68.94
2019-01-14T03:44:02.441Z,69.15
2019-01-14T03:45:02.517Z,69.56
2019-01-14T03:46:02.456Z,69.35
2019-01-14T03:47:02.415Z,69.67
2019-01-14T03:48:02.400Z,68.84
2019-01-14T03:49:02.389Z,69.43
2019-01-14T03:50:02.378Z,68.91
2019-01-14T03:51:02.366Z,68.63
2019-01-14T03:52:02.371Z,69.46
2019-01-14T03:53:02.352Z,68.94
2019-01-14T03:54:02.335Z,68.74
2019-01-14T03:55:02.326Z,69.25
2019-01-14T03:56:02.318Z,68.94
2019-01-14T03:57:02.316Z,68.12
2019-01-14T03:58:02.295Z,68.84
2019-01-14T03:59:02.289Z,68.74
2019-01-14T04:00:02.285Z,68.53
2019-01-14T04:01:02.264Z,68.01
2019-01-14T04:02:02.284Z,68.12
2019-01-14T04:03:02.248Z,68.12
2019-01-14T04:04:02.230Z,67.91
2019-01-14T04:05:02.228Z,68.12
2019-01-14T04:06:02.212Z,68.22
2019-01-14T04:07:02.215Z,69.08
2019-01-14T04:08:02.197Z,68.74
2019-01-14T04:09:02.179Z,68.84
2019-01-14T04:10:02.170Z,68.32
2019-01-14T04:11:02.164Z,68.25
2019-01-14T04:12:02.155Z,68.32
2019-01-14T04:13:02.140Z,68.22
2019-01-14T04:14:02.132Z,68.25
2019-01-14T04:15:02.125Z,68.15
2019-01-14T04:16:02.122Z,68.35
2019-01-14T04:17:02.123Z,67.42
2019-01-14T04:18:02.093Z,67.94
2019-01-14T04:19:02.078Z,67.83
2019-01-14T04:20:02.061Z,67.73
2019-01-14T04:21:02.049Z,67.42
2019-01-14T04:22:02.053Z,67.32
2019-01-14T04:23:02.035Z,67.83
2019-01-14T04:24:02.024Z,67.73
2019-01-14T04:25:02.022Z,68.38
2019-01-14T04:26:01.998Z,67.45
2019-01-14T04:27:01.997Z,67.00
2019-01-14T04:28:01.983Z,66.83
2019-01-14T04:29:02.006Z,66.38
2019-01-14T04:30:01.969Z,66.00
2019-01-14T04:31:01.948Z,65.90
2019-01-14T04:32:01.985Z,65.48
2019-01-14T04:33:01.925Z,65.48
2019-01-14T04:34:01.915Z,65.28
2019-01-14T04:35:01.910Z,64.97
2019-01-14T04:36:01.896Z,64.48
2019-01-14T04:37:01.897Z,64.58
2019-01-14T04:38:01.885Z,64.37
2019-01-14T04:39:01.860Z,63.96
2019-01-14T04:40:01.869Z,64.48
2019-01-14T04:41:01.841Z,63.89
2019-01-14T04:42:01.872Z,63.99
2019-01-14T04:43:01.822Z,63.75
2019-01-14T04:44:01.810Z,63.78
2019-01-14T04:45:01.808Z,63.68
2019-01-14T04:46:01.791Z,64.20
2019-01-14T04:47:01.775Z,64.33
2019-01-14T04:48:01.773Z,63.92
2019-01-14T04:49:01.756Z,64.72
2019-01-14T04:50:01.771Z,64.23
2019-01-14T04:51:01.740Z,64.43
2019-01-14T04:52:01.729Z,64.02
2019-01-14T04:53:01.728Z,64.75
2019-01-14T04:54:01.701Z,63.92
2019-01-14T04:55:01.699Z,64.67
2019-01-14T04:56:01.686Z,64.56
2019-01-14T04:57:01.673Z,63.84
2019-01-14T04:58:01.688Z,63.63
2019-01-14T04:59:01.650Z,63.11
2019-01-14T05:00:01.666Z,63.94
2019-01-14T05:01:01.629Z,63.94
2019-01-14T05:02:01.620Z,63.66
2019-01-14T05:03:01.626Z,63.66
2019-01-14T05:04:01.612Z,63.63
2019-01-14T05:05:01.590Z,63.42
2019-01-14T05:06:01.578Z,63.87
2019-01-14T05:07:01.564Z,63.94
2019-01-14T05:08:01.574Z,63.76
2019-01-14T05:09:01.552Z,63.66
2019-01-14T05:10:01.550Z,63.14
2019-01-14T05:11:01.527Z,63.76
2019-01-14T05:12:01.511Z,63.87
2019-01-14T05:13:01.512Z,63.35
2019-01-14T05:14:01.494Z,62.73
2019-01-14T05:15:01.489Z,61.90
2019-01-14T05:16:01.473Z,63.14
2019-01-14T05:17:01.471Z,63.63
2019-01-14T05:18:01.458Z,63.14
2019-01-14T05:19:01.448Z,62.49
2019-01-14T05:20:01.435Z,62.28
2019-01-14T05:21:01.433Z,61.97
2019-01-14T05:22:01.411Z,61.97
2019-01-14T05:23:01.410Z,62.07
2019-01-14T05:24:01.389Z,62.18
2019-01-14T05:25:01.376Z,62.07
2019-01-14T05:26:01.363Z,61.87
2019-01-14T05:27:01.360Z,62.07
2019-01-14T05:28:01.365Z,61.76
2019-01-14T05:29:01.333Z,61.55
2019-01-14T05:30:01.321Z,62.07
2019-01-14T05:31:01.315Z,61.74
2019-01-14T05:32:01.302Z,61.63
2019-01-14T05:33:01.323Z,62.18
2019-01-14T05:34:01.283Z,62.28
2019-01-14T05:35:01.269Z,62.28
2019-01-14T05:36:01.264Z,62.38
2019-01-14T05:37:01.252Z,62.28
2019-01-14T05:38:01.251Z,62.07
2019-01-14T05:39:01.263Z,62.36
2019-01-14T05:40:01.222Z,62.18
2019-01-14T05:41:01.207Z,61.74
2019-01-14T05:42:01.197Z,61.74
2019-01-14T05:43:01.197Z,61.63
2019-01-14T05:44:01.178Z,61.94
2019-01-14T05:45:01.177Z,61.63
2019-01-14T05:46:01.160Z,61.43
2019-01-14T05:47:01.147Z,61.94
2019-01-14T05:48:01.149Z,60.60
2019-01-14T05:49:01.143Z,60.28
2019-01-14T05:50:01.121Z,60.28
2019-01-14T05:51:01.112Z,60.60
2019-01-14T05:52:01.092Z,60.60
2019-01-14T05:53:01.111Z,60.49
2019-01-14T05:54:01.087Z,60.49
2019-01-14T05:55:01.065Z,60.28
2019-01-14T05:56:01.060Z,60.70
2019-01-14T05:57:01.039Z,61.22
2019-01-14T05:58:01.045Z,61.55
2019-01-14T05:59:01.049Z,61.43
2019-01-14T06:00:01.079Z,61.35
2019-01-14T06:01:00.996Z,61.32
2019-01-14T06:02:00.994Z,60.28
2019-01-14T06:03:00.975Z,60.39
2019-01-14T06:04:00.998Z,61.11
2019-01-14T06:05:00.965Z,60.70
2019-01-14T06:06:00.942Z,60.31
2019-01-14T06:07:00.935Z,61.11
2019-01-14T06:08:00.958Z,61.24
2019-01-14T06:09:00.933Z,61.14
2019-01-14T06:10:00.899Z,61.14
2019-01-14T06:11:00.895Z,61.04
2019-01-14T06:12:00.879Z,61.35
2019-01-14T06:13:00.871Z,61.45
2019-01-14T06:14:00.874Z,62.07
2019-01-14T06:15:00.850Z,61.66
2019-01-14T06:16:00.837Z,61.97
2019-01-14T06:17:00.835Z,61.45
2019-01-14T06:18:00.819Z,60.72
2019-01-14T06:19:00.835Z,62.07
2019-01-14T06:20:00.843Z,62.07
2019-01-14T06:21:00.935Z,62.38
2019-01-14T06:22:00.775Z,62.07
2019-01-14T06:23:00.790Z,62.28
2019-01-14T06:24:01.303Z,62.59
2019-01-14T06:25:00.743Z,63.24
2019-01-14T06:26:00.739Z,64.15
2019-01-14T06:27:00.731Z,64.49
2019-01-14T06:28:00.710Z,64.28
2019-01-14T06:29:00.710Z,64.07
2019-01-14T06:30:00.694Z,65.01
2019-01-14T06:31:00.683Z,64.80
2019-01-14T06:32:00.686Z,64.90
2019-01-14T06:33:00.658Z,65.22
2019-01-14T06:34:00.721Z,65.42
2019-01-14T06:35:00.639Z,64.98
2019-01-14T06:36:00.630Z,65.08
2019-01-14T06:37:00.625Z,65.29
2019-01-14T06:38:00.621Z,66.02
2019-01-14T06:39:00.635Z,66.12
2019-01-14T06:40:00.587Z,66.02
2019-01-14T06:41:00.578Z,66.25
2019-01-14T06:42:00.578Z,66.05
2019-01-14T06:43:00.559Z,66.02
2019-01-14T06:44:00.565Z,66.12
2019-01-14T06:45:00.535Z,66.67
2019-01-14T06:46:00.521Z,66.44
2019-01-14T06:47:00.512Z,66.78
2019-01-14T06:48:00.512Z,66.44
2019-01-14T06:49:00.541Z,66.57
2019-01-14T06:50:01.125Z,67.37
2019-01-14T06:51:00.477Z,67.61
2019-01-14T06:52:00.469Z,68.02
2019-01-14T06:53:00.464Z,68.54
2019-01-14T06:54:00.452Z,68.93
2019-01-14T06:55:00.447Z,69.79
2019-01-14T06:56:00.431Z,69.68
2019-01-14T06:57:00.416Z,70.41
2019-01-14T06:58:00.411Z,70.83
2019-01-14T06:59:00.418Z,71.28
2019-01-14T07:00:00.390Z,71.38
2019-01-14T07:01:00.403Z,71.38
2019-01-14T07:02:00.384Z,71.59
2019-01-14T07:03:01.200Z,73.04
2019-01-14T07:04:00.401Z,72.94
2019-01-14T07:05:00.328Z,73.87
2019-01-14T07:06:00.321Z,73.91
2019-01-14T07:07:00.387Z,74.95
2019-01-14T07:08:00.322Z,75.26
2019-01-14T07:09:00.336Z,75.78
2019-01-14T07:10:00.284Z,76.09
2019-01-14T07:11:00.281Z,76.43
2019-01-14T07:12:00.272Z,76.54
2019-01-14T07:13:00.286Z,76.95
2019-01-14T07:14:00.293Z,77.27
2019-01-14T07:15:00.261Z,77.58
2019-01-14T07:16:00.216Z,77.72
2019-01-14T07:17:00.204Z,77.72
2019-01-14T07:18:00.200Z,78.03
2019-01-14T07:19:00.201Z,78.03
2019-01-14T07:20:00.328Z,78.03
2019-01-14T07:21:00.167Z,77.72
2019-01-14T07:22:00.153Z,77.51
2019-01-14T07:23:00.144Z,77.83
2019-01-14T07:24:00.134Z,76.57
2019-01-14T07:25:00.196Z,75.95
2019-01-14T07:26:00.114Z,75.36
2019-01-14T07:27:00.097Z,74.91
2019-01-14T07:28:00.096Z,74.08
2019-01-14T07:29:00.113Z,73.32
2019-01-14T07:30:00.261Z,72.28
2019-01-14T07:31:00.081Z,71.34
2019-01-14T07:32:00.051Z,69.99
2019-01-14T07:33:00.032Z,68.19
2019-01-14T07:34:00.025Z,67.46
2019-01-14T07:35:00.031Z,66.53
2019-01-14T07:36:00.013Z,66.63
2019-01-14T07:36:59.987Z,66.21
2019-01-14T07:38:06.435Z,64.14
2019-01-14T07:39:00.967Z,63.17
2019-01-14T07:39:59.971Z,63.38
2019-01-14T07:40:59.957Z,63.07
2019-01-14T07:41:59.944Z,62.76
2019-01-14T07:42:59.942Z,62.45
2019-01-14T07:43:59.922Z,61.92
2019-01-14T07:44:59.920Z,62.02
2019-01-14T07:45:59.950Z,59.95
2019-01-14T07:46:59.884Z,59.95
2019-01-14T07:47:59.880Z,59.84
2019-01-14T07:48:59.868Z,58.60
2019-01-14T07:49:59.869Z,59.01
2019-01-14T07:50:59.859Z,58.39
2019-01-14T07:51:59.837Z,58.50
2019-01-14T07:52:59.837Z,57.87
2019-01-14T07:53:59.821Z,57.64
2019-01-14T07:54:59.849Z,57.32
2019-01-14T07:55:59.836Z,57.53
2019-01-14T07:56:59.801Z,57.43
2019-01-14T07:57:59.777Z,57.43
2019-01-14T07:58:59.767Z,57.43
2019-01-14T07:59:59.768Z,57.20
2019-01-14T08:00:59.743Z,57.74
2019-01-14T08:01:59.734Z,58.47
2019-01-14T08:02:59.725Z,59.61
2019-01-14T08:03:59.712Z,59.61
2019-01-14T08:04:59.712Z,60.65
2019-01-14T08:05:59.690Z,60.55
2019-01-14T08:06:59.679Z,60.75
2019-01-14T08:07:59.668Z,61.07
2019-01-14T08:08:59.660Z,61.45
2019-01-14T08:09:59.664Z,61.48
2019-01-14T08:10:59.651Z,61.97
2019-01-14T08:11:59.629Z,61.79
2019-01-14T08:12:59.638Z,61.97
2019-01-14T08:13:59.605Z,61.87
2019-01-14T08:14:59.606Z,61.66
2019-01-14T08:15:59.587Z,61.35
2019-01-14T08:16:59.576Z,61.45
2019-01-14T08:17:59.559Z,61.24
2019-01-14T08:18:59.551Z,61.55
2019-01-14T08:19:59.555Z,60.10
2019-01-14T08:20:59.526Z,60.62
2019-01-14T08:21:59.519Z,60.31
2019-01-14T08:22:59.513Z,60.31
2019-01-14T08:23:59.502Z,60.28
2019-01-14T08:24:59.502Z,60.28
2019-01-14T08:25:59.487Z,60.60
2019-01-14T08:26:59.463Z,60.39
2019-01-14T08:27:59.453Z,60.39
2019-01-14T08:28:59.462Z,60.41
2019-01-14T08:29:59.453Z,60.62
2019-01-14T08:30:59.421Z,60.41
2019-01-14T08:31:59.423Z,60.41
2019-01-14T08:32:59.398Z,60.62
2019-01-14T08:33:59.395Z,59.87
2019-01-14T08:34:59.420Z,59.97
2019-01-14T08:35:59.373Z,59.79
2019-01-14T08:37:00.898Z,59.56
2019-01-14T08:37:59.345Z,59.87
2019-01-14T08:38:59.335Z,59.66
2019-01-14T08:39:59.328Z,59.56
2019-01-14T08:40:59.329Z,59.48
2019-01-14T08:41:59.340Z,59.45
2019-01-14T08:42:59.341Z,58.80
2019-01-14T08:43:59.299Z,58.59
2019-01-14T08:44:59.298Z,58.18
2019-01-14T08:45:59.285Z,57.76
2019-01-14T08:46:59.261Z,58.18
2019-01-14T08:47:59.239Z,57.76
2019-01-14T08:48:59.233Z,58.07
2019-01-14T08:49:59.218Z,57.76
2019-01-14T08:50:59.217Z,57.45
2019-01-14T08:51:59.197Z,57.56
2019-01-14T08:52:59.198Z,56.76
2019-01-14T08:53:59.172Z,57.24
2019-01-14T08:54:59.163Z,57.17
2019-01-14T08:55:59.167Z,56.96
2019-01-14T08:56:59.148Z,58.00
2019-01-14T08:57:59.135Z,56.86
2019-01-14T08:58:59.134Z,57.14
2019-01-14T08:59:59.122Z,56.31
2019-01-14T09:00:59.154Z,55.25
2019-01-14T09:01:59.088Z,54.91
2019-01-14T09:02:59.077Z,54.27
2019-01-14T09:03:59.066Z,54.45
2019-01-14T09:04:59.068Z,53.33
2019-01-14T09:05:59.072Z,53.10
2019-01-14T09:06:59.039Z,53.41
2019-01-14T09:07:59.028Z,53.10
2019-01-14T09:08:59.015Z,53.23
2019-01-14T09:09:59.067Z,53.64
2019-01-14T09:10:59.062Z,53.77
2019-01-14T09:11:58.983Z,53.98
2019-01-14T09:12:58.979Z,52.95
2019-01-14T09:13:58.959Z,53.05
2019-01-14T09:14:58.952Z,53.98
2019-01-14T09:15:58.950Z,53.23
2019-01-14T09:16:58.943Z,53.52
2019-01-14T09:18:02.970Z,52.23
2019-01-14T09:18:58.919Z,50.42
2019-01-14T09:19:58.903Z,50.20
2019-01-14T09:20:59.015Z,49.88
2019-01-14T09:21:58.893Z,49.05
2019-01-14T09:22:58.866Z,49.34
2019-01-14T09:23:58.852Z,48.70
2019-01-14T09:24:58.841Z,48.72
2019-01-14T09:25:58.867Z,48.93
2019-01-14T09:26:58.822Z,48.93
2019-01-14T09:27:58.809Z,48.65
2019-01-14T09:28:58.800Z,48.46
2019-01-14T09:29:58.790Z,49.00
2019-01-14T09:30:58.788Z,49.72
2019-01-14T09:31:58.771Z,49.64
2019-01-14T09:32:58.757Z,49.22
2019-01-14T09:33:58.746Z,49.52
2019-01-14T09:34:58.735Z,49.37
2019-01-14T09:35:58.743Z,48.54
2019-01-14T09:36:58.715Z,48.41
2019-01-14T09:37:58.707Z,48.10
2019-01-14T09:38:58.711Z,47.98
2019-01-14T09:39:58.689Z,47.77
2019-01-14T09:40:58.688Z,47.77
2019-01-14T09:41:58.668Z,48.08
2019-01-14T09:42:58.650Z,48.62
2019-01-14T09:43:58.686Z,47.88
2019-01-14T09:44:58.651Z,48.33
2019-01-14T09:45:58.687Z,48.21
2019-01-14T09:46:58.612Z,48.41
2019-01-14T09:47:58.605Z,48.19
2019-01-14T09:48:58.598Z,47.77
2019-01-14T09:49:58.630Z,46.66
2019-01-14T09:50:58.582Z,46.66
2019-01-14T09:51:58.583Z,47.02
2019-01-14T09:52:58.554Z,48.58
2019-01-14T09:53:58.542Z,48.25
2019-01-14T09:54:58.526Z,47.22
2019-01-14T09:55:58.525Z,47.30
2019-01-14T09:56:58.524Z,47.30
2019-01-14T09:57:58.499Z,47.20
2019-01-14T09:58:58.480Z,46.45
2019-01-14T09:59:58.470Z,46.47
2019-01-14T10:00:58.457Z,46.17
2019-01-14T10:01:58.460Z,47.30
2019-01-14T10:02:58.438Z,46.37
2019-01-14T10:03:58.426Z,46.27
2019-01-14T10:04:58.445Z,46.68
2019-01-14T10:05:58.413Z,46.37
2019-01-14T10:06:58.411Z,46.17
2019-01-14T10:07:58.388Z,45.96
2019-01-14T10:08:58.376Z,46.58
2019-01-14T10:09:58.365Z,46.58
2019-01-14T10:10:58.350Z,46.99
2019-01-14T10:11:58.352Z,46.78
2019-01-14T10:12:58.331Z,47.11
2019-01-14T10:13:58.322Z,47.61
2019-01-14T10:14:58.319Z,47.20
2019-01-14T10:15:58.299Z,47.09
2019-01-14T10:16:59.652Z,47.80
2019-01-14T10:17:58.278Z,47.02
2019-01-14T10:18:58.266Z,47.02
2019-01-14T10:19:58.261Z,48.15
2019-01-14T10:20:58.264Z,48.46
2019-01-14T10:21:58.253Z,48.15
2019-01-14T10:22:58.227Z,48.25
2019-01-14T10:23:58.219Z,47.84
2019-01-14T10:24:58.207Z,48.54
2019-01-14T10:25:58.196Z,48.36
2019-01-14T10:26:58.197Z,48.56
2019-01-14T10:27:58.172Z,48.38
2019-01-14T10:28:58.159Z,48.87
2019-01-14T10:29:58.157Z,48.77
2019-01-14T10:30:58.142Z,48.95
2019-01-14T10:31:58.158Z,48.95
2019-01-14T10:32:58.149Z,47.71
2019-01-14T10:33:58.110Z,47.81
2019-01-14T10:34:58.098Z,47.30
2019-01-14T10:35:58.090Z,48.46
2019-01-14T10:36:58.123Z,48.13
2019-01-14T10:37:58.078Z,49.08
2019-01-14T10:38:58.056Z,48.38
2019-01-14T10:39:58.049Z,49.00
2019-01-14T10:40:58.039Z,49.21
2019-01-14T10:41:58.043Z,49.95
2019-01-14T10:42:58.014Z,49.54
2019-01-14T10:43:58.008Z,50.16
2019-01-14T10:44:57.993Z,50.89
2019-01-14T10:45:57.981Z,50.05
2019-01-14T10:46:58.038Z,50.57
2019-01-14T10:47:57.966Z,50.26
2019-01-14T10:48:57.947Z,50.37
2019-01-14T10:49:57.941Z,50.99
2019-01-14T10:50:57.925Z,51.58
2019-01-14T10:51:57.939Z,51.40
2019-01-14T10:52:57.943Z,52.10
2019-01-14T10:53:57.902Z,51.79
2019-01-14T10:54:57.888Z,51.71
2019-01-14T10:55:57.875Z,51.89
2019-01-14T10:56:57.888Z,51.58
2019-01-14T10:57:57.886Z,51.17
2019-01-14T10:58:57.852Z,51.68
2019-01-14T10:59:57.897Z,50.47
2019-01-14T11:00:57.849Z,50.60
2019-01-14T11:01:57.837Z,50.80
2019-01-14T11:02:57.840Z,50.90
2019-01-14T11:03:57.803Z,50.70
2019-01-14T11:04:57.809Z,50.60
2019-01-14T11:05:57.797Z,50.39
2019-01-14T11:06:57.805Z,49.87
2019-01-14T11:07:57.785Z,49.69
2019-01-14T11:09:05.795Z,49.46
2019-01-14T11:09:58.736Z,50.18
2019-01-14T11:10:57.728Z,50.18
2019-01-14T11:11:57.723Z,49.35
2019-01-14T11:12:57.724Z,50.80
2019-01-14T11:13:57.716Z,50.18
2019-01-14T11:15:02.737Z,50.29
2019-01-14T11:15:58.682Z,49.90
2019-01-14T11:16:57.662Z,50.62
2019-01-14T11:17:57.661Z,49.98
2019-01-14T11:18:57.651Z,49.77
2019-01-14T11:19:57.638Z,49.77
2019-01-14T11:20:57.617Z,49.25
2019-01-14T11:21:57.612Z,49.66
2019-01-14T11:22:57.610Z,50.29
2019-01-14T11:23:57.590Z,49.87
2019-01-14T11:24:57.601Z,49.46
2019-01-14T11:25:57.567Z,48.53
2019-01-14T11:26:57.554Z,49.46
2019-01-14T11:27:57.550Z,49.56
2019-01-14T11:28:57.532Z,49.56
2019-01-14T11:29:57.533Z,49.15
2019-01-14T11:30:57.515Z,48.63
2019-01-14T11:31:57.504Z,47.60
2019-01-14T11:32:57.501Z,47.28
2019-01-14T11:33:57.475Z,47.20
2019-01-14T11:34:57.478Z,47.82
2019-01-14T11:35:57.459Z,48.36
2019-01-14T11:36:57.447Z,49.09
2019-01-14T11:37:57.459Z,48.68
2019-01-14T11:39:04.770Z,48.99
2019-01-14T11:39:58.482Z,48.55
2019-01-14T11:40:57.465Z,48.86
2019-01-14T11:41:57.446Z,46.77
2019-01-14T11:42:57.407Z,47.28
2019-01-14T11:43:57.389Z,46.25
2019-01-14T11:44:57.367Z,45.84
2019-01-14T11:45:57.355Z,46.77
2019-01-14T11:46:57.346Z,46.17
2019-01-14T11:47:57.394Z,45.86
2019-01-14T11:48:57.334Z,46.17
2019-01-14T11:49:57.433Z,46.89
2019-01-14T11:50:57.299Z,46.27
2019-01-14T11:51:57.293Z,46.06
2019-01-14T11:52:57.293Z,45.88
2019-01-14T11:53:57.272Z,46.91
2019-01-14T11:54:57.263Z,46.30
2019-01-14T11:55:57.247Z,47.12
2019-01-14T11:56:57.240Z,47.33
2019-01-14T11:57:57.236Z,47.43
2019-01-14T11:58:57.215Z,47.43
2019-01-14T11:59:57.203Z,47.04
2019-01-14T12:00:57.201Z,47.45
2019-01-14T12:01:57.191Z,47.77
2019-01-14T12:02:57.188Z,47.56
2019-01-14T12:03:57.157Z,47.97
2019-01-14T12:04:57.151Z,47.97
2019-01-14T12:05:57.140Z,47.35
2019-01-14T12:06:57.132Z,48.39
2019-01-14T12:07:57.129Z,48.82
2019-01-14T12:08:57.106Z,48.69
2019-01-14T12:09:57.096Z,48.61
2019-01-14T12:10:57.088Z,48.90
2019-01-14T12:11:57.079Z,49.63
2019-01-14T12:12:57.083Z,48.90
2019-01-14T12:13:57.052Z,47.87
2019-01-14T12:14:57.052Z,47.37
2019-01-14T12:15:57.033Z,47.35
2019-01-14T12:16:57.034Z,47.58
2019-01-14T12:17:57.024Z,46.64
2019-01-14T12:18:56.998Z,46.13
2019-01-14T12:19:56.993Z,46.54
2019-01-14T12:20:56.981Z,46.75
2019-01-14T12:21:56.971Z,46.95
2019-01-14T12:22:56.974Z,46.62
2019-01-14T12:23:56.948Z,46.54
2019-01-14T12:24:56.938Z,46.94
2019-01-14T12:25:56.929Z,46.62
2019-01-14T12:26:56.920Z,47.16
2019-01-14T12:27:56.985Z,46.52
2019-01-14T12:28:56.898Z,47.87
2019-01-14T12:29:56.894Z,47.56
2019-01-14T12:30:56.877Z,46.21
2019-01-14T12:31:56.861Z,46.83
2019-01-14T12:32:56.855Z,46.62
2019-01-14T12:33:56.851Z,47.16
2019-01-14T12:34:56.837Z,47.45
2019-01-14T12:35:56.820Z,47.16
2019-01-14T12:36:56.808Z,47.58
2019-01-14T12:37:56.798Z,47.25
2019-01-14T12:38:56.804Z,47.37
2019-01-14T12:39:56.777Z,47.47
2019-01-14T12:40:56.801Z,46.95
2019-01-14T12:41:56.767Z,47.68
2019-01-14T12:42:56.749Z,47.58
2019-01-14T12:43:56.751Z,47.37
2019-01-14T12:44:56.725Z,47.58
2019-01-14T12:45:56.716Z,47.27
2019-01-14T12:46:56.707Z,47.68
2019-01-14T12:47:56.729Z,47.37
2019-01-14T12:48:56.702Z,47.37
2019-01-14T12:49:56.687Z,47.47
2019-01-14T12:50:56.664Z,47.47
2019-01-14T12:51:56.684Z,48.02